Time;durP1;ratioP1;P1;durP2;ratioP2;P2;SDS_P1;SDS_P2;PMS_P1;PMS_P2;Temp;Humidity;BMP_temperature;BMP_pressure;BME280_temperature;BME280_humidity;BME280_pressure;Samples;Min_cycle;Max_cycle;Signal;HPM_P1;HPM_P2
2022/10/04 00:01:45;;;;;;;8.40;4.62;;;;;;;10.42;100.00;98708.20;2073753;84;21094;-87
2022/10/04 00:04:46;;;;;;;8.48;4.75;;;;;;;10.45;100.00;98711.79;2076861;84;20989;-85
2022/10/04 00:07:47;;;;;;;8.15;4.33;;;;;;;10.45;100.00;98713.91;2083257;84;21041;-86
2022/10/04 00:10:47;;;;;;;9.28;3.52;;;;;;;10.46;100.00;98709.48;2084180;85;20992;-86
2022/10/04 00:13:48;;;;;;;6.70;4.37;;;;;;;10.46;100.00;98708.98;2086948;85;21527;-86
2022/10/04 00:16:49;;;;;;;11.20;4.22;;;;;;;10.47;100.00;98694.09;2079620;85;21650;-86
2022/10/04 00:19:50;;;;;;;7.25;3.87;;;;;;;10.48;100.00;98697.84;2092527;85;21559;-86
2022/10/04 00:22:50;;;;;;;7.58;4.55;;;;;;;10.47;100.00;98700.14;2092527;85;21048;-86
2022/10/04 00:25:51;;;;;;;8.98;4.22;;;;;;;10.44;100.00;98688.73;2092543;85;21567;-86
2022/10/04 00:28:52;;;;;;;11.38;4.58;;;;;;;10.44;100.00;98690.53;2092392;85;21131;-86
2022/10/04 00:31:53;;;;;;;9.30;5.00;;;;;;;10.46;100.00;98693.78;2087625;85;21067;-86
2022/10/04 00:34:54;;;;;;;6.75;4.37;;;;;;;10.47;100.00;98692.78;2089508;85;21076;-87
2022/10/04 00:37:54;;;;;;;8.98;4.15;;;;;;;10.48;100.00;98686.55;2055902;84;21070;-85
2022/10/04 00:40:55;;;;;;;8.98;4.33;;;;;;;10.48;100.00;98687.86;2080734;84;21085;-85
2022/10/04 00:43:56;;;;;;;17.32;4.65;;;;;;;10.48;100.00;98677.39;2082695;85;21839;-86
2022/10/04 00:46:56;;;;;;;11.10;4.25;;;;;;;10.47;100.00;98673.97;2092653;85;21088;-86
2022/10/04 00:49:57;;;;;;;10.00;4.30;;;;;;;10.48;100.00;98672.97;2078252;85;21111;-87
2022/10/04 00:52:58;;;;;;;8.33;4.20;;;;;;;10.47;100.00;98681.81;2072005;84;21100;-86
2022/10/04 00:55:59;;;;;;;8.78;4.70;;;;;;;10.46;100.00;98676.77;2081325;85;21040;-86
2022/10/04 00:59:01;;;;;;;9.33;4.45;;;;;;;10.46;100.00;98676.27;2088249;85;21029;-86
2022/10/04 01:02:01;;;;;;;7.80;3.87;;;;;;;10.44;100.00;98680.06;2082161;84;21091;-87
2022/10/04 01:05:02;;;;;;;11.48;4.42;;;;;;;10.41;100.00;98684.33;2130513;82;21044;-87
2022/10/04 01:08:03;;;;;;;10.63;4.05;;;;;;;10.39;100.00;98675.35;2112308;83;21059;-86
2022/10/04 01:11:04;;;;;;;9.33;3.92;;;;;;;10.37;100.00;98679.96;2130349;82;21792;-86
2022/10/04 01:14:05;;;;;;;8.13;4.70;;;;;;;10.39;100.00;98680.59;2129897;82;21107;-86
2022/10/04 01:17:05;;;;;;;10.35;3.85;;;;;;;10.40;100.00;98684.83;2135219;82;21108;-86
2022/10/04 01:20:06;;;;;;;10.60;4.25;;;;;;;10.39;100.00;98678.47;2138513;82;21000;-86
2022/10/04 01:23:07;;;;;;;10.13;4.20;;;;;;;10.39;100.00;98675.35;2131626;82;21528;-87
2022/10/04 01:26:08;;;;;;;7.35;4.25;;;;;;;10.43;100.00;98674.52;2132048;82;21032;-86
2022/10/04 01:29:08;;;;;;;9.95;4.35;;;;;;;10.42;100.00;98663.70;2133698;82;21627;-86
2022/10/04 01:32:09;;;;;;;7.75;4.25;;;;;;;10.43;100.00;98677.14;2130364;83;21131;-88
2022/10/04 01:35:10;;;;;;;11.30;4.30;;;;;;;10.45;100.00;98672.03;2136002;82;20996;-88
2022/10/04 01:38:11;;;;;;;7.67;4.05;;;;;;;10.48;100.00;98677.39;2094206;84;21024;-86
2022/10/04 01:41:13;;;;;;;11.28;4.58;;;;;;;10.48;100.00;98669.05;2093151;85;21040;-86
2022/10/04 01:44:14;;;;;;;11.83;4.78;;;;;;;10.44;100.00;98669.09;2095537;85;21519;-87
2022/10/04 01:47:14;;;;;;;8.00;4.25;;;;;;;10.41;100.00;98660.27;2093548;83;21297;-87
2022/10/04 01:50:15;;;;;;;11.53;4.65;;;;;;;10.38;100.00;98663.27;2096410;85;21067;-87
2022/10/04 01:53:16;;;;;;;9.33;3.98;;;;;;;10.40;100.00;98657.84;2096239;83;21088;-86
2022/10/04 01:56:17;;;;;;;7.87;4.37;;;;;;;10.40;100.00;98668.31;2095144;85;21088;-87
2022/10/04 01:59:17;;;;;;;9.78;4.33;;;;;;;10.36;100.00;98665.75;2093522;85;20996;-86
2022/10/04 02:02:18;;;;;;;7.83;4.05;;;;;;;10.29;100.00;98679.22;2094239;85;21084;-87
2022/10/04 02:05:19;;;;;;;9.73;4.00;;;;;;;10.27;100.00;98678.09;2091312;85;21167;-86
2022/10/04 02:08:20;;;;;;;9.10;4.05;;;;;;;10.28;100.00;98678.91;2091402;85;21009;-87
2022/10/04 02:11:20;;;;;;;10.85;4.80;;;;;;;10.21;100.00;98678.77;2088264;85;21045;-86
2022/10/04 02:14:21;;;;;;;8.58;4.92;;;;;;;10.18;100.00;98682.56;2096834;85;21508;-86
2022/10/04 02:17:22;;;;;;;7.60;4.33;;;;;;;10.18;100.00;98679.13;2093807;84;21416;-85
2022/10/04 02:20:23;;;;;;;10.68;4.58;;;;;;;10.17;100.00;98686.67;2094357;85;21044;-87
2022/10/04 02:23:24;;;;;;;6.83;4.50;;;;;;;10.13;100.00;98682.27;2094639;85;21036;-87
2022/10/04 02:26:24;;;;;;;8.28;4.37;;;;;;;10.10;100.00;98676.09;2094225;85;21028;-86
2022/10/04 02:29:25;;;;;;;8.18;4.87;;;;;;;10.07;100.00;98679.57;2093216;83;21044;-85
2022/10/04 02:35:45;;;;;;;9.45;4.08;;;;;;;10.08;100.00;98685.92;2091821;85;21083;-86
2022/10/04 02:38:45;;;;;;;8.48;4.30;;;;;;;10.05;100.00;98687.57;2095407;85;21527;-86
2022/10/04 02:41:46;;;;;;;8.25;4.50;;;;;;;10.06;100.00;98691.84;2091219;85;21104;-87
2022/10/04 02:44:47;;;;;;;8.33;4.30;;;;;;;10.07;100.00;98693.95;2091021;84;21074;-86
2022/10/04 02:47:48;;;;;;;7.42;4.05;;;;;;;10.05;100.00;98698.53;2079611;85;21081;-86
2022/10/04 02:50:48;;;;;;;9.30;3.80;;;;;;;10.06;100.00;98695.77;2061735;85;21037;-87
2022/10/04 02:53:49;;;;;;;6.47;4.22;;;;;;;10.07;100.00;98688.23;2063309;85;21564;-86
2022/10/04 02:56:52;;;;;;;7.85;4.15;;;;;;;10.06;100.00;98689.69;2061369;85;22002;-87
2022/10/04 02:59:52;;;;;;;10.90;5.30;;;;;;;10.04;100.00;98695.59;2058386;86;21175;-86
2022/10/04 03:02:53;;;;;;;11.85;5.28;;;;;;;10.06;100.00;98704.08;2060051;86;21072;-87
2022/10/04 03:05:53;;;;;;;13.08;5.85;;;;;;;10.09;100.00;98698.52;2094262;84;21068;-86
2022/10/04 03:08:55;;;;;;;8.18;4.85;;;;;;;10.08;100.00;98698.20;2088178;85;21628;-87
2022/10/04 03:11:55;;;;;;;11.93;4.62;;;;;;;10.05;100.00;98696.72;2094187;85;21096;-88
2022/10/04 03:14:56;;;;;;;10.78;5.22;;;;;;;10.07;100.00;98695.27;2090773;85;21590;-91
2022/10/04 03:17:57;;;;;;;11.18;4.37;;;;;;;10.05;100.00;98694.61;2095114;85;21087;-88
2022/10/04 03:20:57;;;;;;;4.08;3.42;;;;;;;10.03;100.00;98697.90;2090670;84;21111;-89
2022/10/04 03:23:59;;;;;;;9.30;3.72;;;;;;;10.03;100.00;98698.70;2096600;85;21079;-87
2022/10/04 03:27:00;;;;;;;7.97;3.62;;;;;;;10.05;100.00;98694.61;2095365;85;21382;-87
2022/10/04 03:30:01;;;;;;;6.50;2.85;;;;;;;10.04;100.00;98694.29;2061272;85;21031;-88
2022/10/04 03:33:02;;;;;;;5.55;3.20;;;;;;;10.04;100.00;98691.17;2086590;84;21021;-89
2022/10/04 03:36:02;;;;;;;5.97;2.72;;;;;;;10.04;100.00;98700.33;2093941;85;21055;-87
2022/10/04 03:39:03;;;;;;;5.75;2.47;;;;;;;10.05;100.00;98699.84;2096347;83;21009;-88
2022/10/04 03:42:04;;;;;;;5.65;2.92;;;;;;;10.04;100.00;98703.45;2056346;85;21033;-89
2022/10/04 03:45:05;;;;;;;8.98;3.50;;;;;;;10.05;100.00;98701.14;2096048;85;21052;-88
2022/10/04 03:48:06;;;;;;;4.60;2.67;;;;;;;10.06;100.00;98698.84;2095249;85;21071;-89
2022/10/04 03:51:07;;;;;;;5.83;3.98;;;;;;;10.03;100.00;98707.05;2053495;85;21067;-88
2022/10/04 03:54:07;;;;;;;9.73;4.30;;;;;;;10.03;100.00;98707.05;2136105;81;21528;-88
2022/10/04 03:57:08;;;;;;;6.17;3.95;;;;;;;10.03;100.00;98706.56;2136274;81;21059;-88
2022/10/04 04:00:09;;;;;;;9.48;4.55;;;;;;;10.02;100.00;98707.55;2134509;82;21123;-88
2022/10/04 04:03:10;;;;;;;6.90;4.20;;;;;;;10.02;100.00;98707.55;2131631;83;21095;-87
2022/10/04 04:06:11;;;;;;;12.78;4.80;;;;;;;10.02;100.00;98709.36;2131710;82;21562;-88
2022/10/04 04:09:12;;;;;;;6.95;4.25;;;;;;;10.04;100.00;98709.98;2130663;83;21004;-88
2022/10/04 04:12:12;;;;;;;10.05;5.85;;;;;;;10.04;100.00;98705.56;2135270;82;21072;-88
2022/10/04 04:15:13;;;;;;;9.88;4.95;;;;;;;10.03;100.00;98712.28;2096937;85;21115;-89
2022/10/04 04:18:14;;;;;;;9.70;5.05;;;;;;;10.02;100.00;98709.36;2095663;85;21586;-88
2022/10/04 04:21:14;;;;;;;12.03;5.33;;;;;;;10.00;100.00;98715.27;2095551;85;21033;-88
2022/10/04 04:24:15;;;;;;;7.62;5.08;;;;;;;10.00;100.00;98717.88;2135789;81;21515;-88
2022/10/04 04:27:16;;;;;;;9.23;4.50;;;;;;;10.03;100.00;98718.33;2132558;83;21062;-90
2022/10/04 04:30:17;;;;;;;7.45;4.53;;;;;;;10.03;100.00;98722.25;2073283;85;21108;-88
2022/10/04 04:33:18;;;;;;;10.28;4.95;;;;;;;10.04;100.00;98723.06;2091942;85;21059;-87
2022/10/04 04:36:18;;;;;;;11.25;5.05;;;;;;;10.05;100.00;98723.38;2092497;85;21048;-88
2022/10/04 04:39:39;;;;;;;7.78;6.05;;;;;;;10.05;100.00;98729.92;2096636;85;21059;-90
2022/10/04 04:42:41;;;;;;;12.75;4.85;;;;;;;10.06;100.00;98731.08;2096267;84;21095;-89
2022/10/04 04:45:41;;;;;;;10.82;5.35;;;;;;;10.05;100.00;98737.27;2090366;85;21251;-88
2022/10/04 04:48:43;;;;;;;9.98;5.60;;;;;;;10.03;100.00;98739.75;2094173;84;21508;-89
2022/10/04 04:51:44;;;;;;;6.42;5.22;;;;;;;10.04;100.00;98741.38;2093663;83;21559;-88
2022/10/04 04:54:46;;;;;;;11.63;5.58;;;;;;;10.04;100.00;98734.84;2092696;85;21140;-89
2022/10/04 04:57:46;;;;;;;7.40;4.62;;;;;;;10.03;100.00;98739.25;2095239;85;21032;-88
2022/10/04 05:00:47;;;;;;;12.40;6.05;;;;;;;10.04;100.00;98733.53;2093691;85;21005;-89
2022/10/04 05:03:48;;;;;;;7.85;4.40;;;;;;;10.02;100.00;98727.17;2096894;84;21107;-89
2022/10/04 05:06:49;;;;;;;9.83;6.05;;;;;;;10.02;100.00;98743.36;2094820;83;21083;-90
2022/10/04 05:09:49;;;;;;;12.07;5.90;;;;;;;9.98;100.00;98746.34;2092296;85;21009;-88
2022/10/04 05:12:50;;;;;;;10.18;5.58;;;;;;;9.96;100.00;98752.21;2097095;85;21084;-87
2022/10/04 05:15:51;;;;;;;8.70;5.70;;;;;;;9.96;100.00;98753.52;2088174;85;21171;-88
2022/10/04 05:18:52;;;;;;;17.75;5.75;;;;;;;9.96;100.00;98756.13;2095403;85;21028;-88
2022/10/04 05:21:53;;;;;;;11.90;5.72;;;;;;;10.01;100.00;98766.59;2090358;85;21048;-88
2022/10/04 05:24:54;;;;;;;11.18;5.85;;;;;;;10.05;100.00;98763.92;2091662;85;21473;-88
2022/10/04 05:27:55;;;;;;;14.70;7.10;;;;;;;10.11;100.00;98773.70;2090666;85;21124;-87
